sensor_id;sensor_type;location;lat;lon;timestamp;pressure;altitude;pressure_sealevel;temperature;humidity
21359;BME280;13506;50.852;20.632;2023-04-19T00:01:35;98409.41;;;10.34;79.37
21359;BME280;13506;50.852;20.632;2023-04-19T00:04:04;98403.16;;;10.37;80.65
21359;BME280;13506;50.852;20.632;2023-04-19T00:06:34;98403.97;;;10.37;78.76
21359;BME280;13506;50.852;20.632;2023-04-19T00:09:03;98402.13;;;10.26;77.50
21359;BME280;13506;50.852;20.632;2023-04-19T00:11:32;98388.72;;;10.31;77.52
21359;BME280;13506;50.852;20.632;2023-04-19T00:14:00;98395.00;;;10.28;77.19
21359;BME280;13506;50.852;20.632;2023-04-19T00:16:28;98384.03;;;10.23;76.97
21359;BME280;13506;50.852;20.632;2023-04-19T00:18:56;98379.13;;;10.19;75.68
21359;BME280;13506;50.852;20.632;2023-04-19T00:21:26;98384.03;;;10.23;75.14
21359;BME280;13506;50.852;20.632;2023-04-19T00:23:54;98372.00;;;10.21;75.70
21359;BME280;13506;50.852;20.632;2023-04-19T00:26:22;98367.41;;;10.24;74.94
21359;BME280;13506;50.852;20.632;2023-04-19T00:28:52;98372.09;;;10.19;74.43
21359;BME280;13506;50.852;20.632;2023-04-19T00:31:20;98371.38;;;10.17;73.96
21359;BME280;13506;50.852;20.632;2023-04-19T00:33:48;98367.00;;;10.18;74.32
21359;BME280;13506;50.852;20.632;2023-04-19T00:36:16;98364.25;;;10.19;75.21
21359;BME280;13506;50.852;20.632;2023-04-19T00:38:48;98350.69;;;10.14;74.68
21359;BME280;13506;50.852;20.632;2023-04-19T00:41:16;98350.59;;;10.16;75.25
21359;BME280;13506;50.852;20.632;2023-04-19T00:43:44;98356.16;;;10.11;74.56
21359;BME280;13506;50.852;20.632;2023-04-19T00:46:14;98350.50;;;10.04;75.74
21359;BME280;13506;50.852;20.632;2023-04-19T00:48:42;98345.09;;;9.94;76.26
21359;BME280;13506;50.852;20.632;2023-04-19T00:51:12;98352.94;;;9.94;76.50
21359;BME280;13506;50.852;20.632;2023-04-19T00:53:40;98348.63;;;9.93;75.65
21359;BME280;13506;50.852;20.632;2023-04-19T00:56:10;98347.72;;;9.94;76.50
21359;BME280;13506;50.852;20.632;2023-04-19T00:58:39;98337.84;;;9.98;75.74
21359;BME280;13506;50.852;20.632;2023-04-19T01:01:07;98340.78;;;9.93;76.04
21359;BME280;13506;50.852;20.632;2023-04-19T01:03:35;98335.47;;;9.95;76.77
21359;BME280;13506;50.852;20.632;2023-04-19T01:06:04;98346.16;;;9.92;76.01
21359;BME280;13506;50.852;20.632;2023-04-19T01:08:32;98341.75;;;9.92;76.91
21359;BME280;13506;50.852;20.632;2023-04-19T01:11:00;98333.19;;;9.90;76.79
21359;BME280;13506;50.852;20.632;2023-04-19T01:13:29;98333.28;;;9.89;76.56
21359;BME280;13506;50.852;20.632;2023-04-19T01:15:57;98330.16;;;9.84;76.32
21359;BME280;13506;50.852;20.632;2023-04-19T01:18:25;98325.53;;;9.87;76.25
21359;BME280;13506;50.852;20.632;2023-04-19T01:20:58;98323.66;;;9.89;76.44
21359;BME280;13506;50.852;20.632;2023-04-19T01:23:27;98329.75;;;9.90;76.01
21359;BME280;13506;50.852;20.632;2023-04-19T01:25:56;98322.94;;;9.87;75.65
21359;BME280;13506;50.852;20.632;2023-04-19T01:28:24;98314.06;;;9.77;76.35
21359;BME280;13506;50.852;20.632;2023-04-19T01:30:52;98322.72;;;9.78;75.40
21359;BME280;13506;50.852;20.632;2023-04-19T01:33:20;98321.69;;;9.80;76.00
21359;BME280;13506;50.852;20.632;2023-04-19T01:35:49;98320.88;;;9.80;74.89
21359;BME280;13506;50.852;20.632;2023-04-19T01:38:17;98324.69;;;9.74;75.23
21359;BME280;13506;50.852;20.632;2023-04-19T01:40:47;98323.16;;;9.71;75.63
21359;BME280;13506;50.852;20.632;2023-04-19T01:43:16;98315.63;;;9.67;75.47
21359;BME280;13506;50.852;20.632;2023-04-19T01:45:44;98318.75;;;9.72;76.01
21359;BME280;13506;50.852;20.632;2023-04-19T01:48:12;98311.13;;;9.69;74.95
21359;BME280;13506;50.852;20.632;2023-04-19T01:50:40;98307.66;;;9.68;75.11
21359;BME280;13506;50.852;20.632;2023-04-19T01:53:10;98303.91;;;9.72;75.42
21359;BME280;13506;50.852;20.632;2023-04-19T01:55:38;98306.75;;;9.69;75.75
21359;BME280;13506;50.852;20.632;2023-04-19T01:58:08;98309.03;;;9.74;75.18
21359;BME280;13506;50.852;20.632;2023-04-19T02:00:36;98292.84;;;9.69;74.42
21359;BME280;13506;50.852;20.632;2023-04-19T02:03:04;98308.28;;;9.72;74.90
21359;BME280;13506;50.852;20.632;2023-04-19T02:05:32;98288.47;;;9.69;74.73
21359;BME280;13506;50.852;20.632;2023-04-19T02:08:01;98302.03;;;9.62;75.69
21359;BME280;13506;50.852;20.632;2023-04-19T02:10:31;98303.31;;;9.56;75.37
21359;BME280;13506;50.852;20.632;2023-04-19T02:12:58;98298.19;;;9.54;75.72
21359;BME280;13506;50.852;20.632;2023-04-19T02:15:29;98302.47;;;9.56;75.45
21359;BME280;13506;50.852;20.632;2023-04-19T02:17:57;98287.84;;;9.40;76.87
21359;BME280;13506;50.852;20.632;2023-04-19T02:20:26;98282.63;;;9.40;77.40
21359;BME280;13506;50.852;20.632;2023-04-19T02:22:54;98287.22;;;9.37;76.96
21359;BME280;13506;50.852;20.632;2023-04-19T02:25:22;98286.81;;;9.43;76.41
21359;BME280;13506;50.852;20.632;2023-04-19T02:27:50;98277.63;;;9.37;77.02
21359;BME280;13506;50.852;20.632;2023-04-19T02:30:19;98279.94;;;9.29;78.08
21359;BME280;13506;50.852;20.632;2023-04-19T02:32:48;98280.34;;;9.36;77.09
21359;BME280;13506;50.852;20.632;2023-04-19T02:35:16;98275.84;;;9.25;77.72
21359;BME280;13506;50.852;20.632;2023-04-19T02:37:44;98276.38;;;9.30;77.38
21359;BME280;13506;50.852;20.632;2023-04-19T02:40:12;98279.59;;;9.21;78.65
21359;BME280;13506;50.852;20.632;2023-04-19T02:42:40;98282.22;;;9.21;78.54
21359;BME280;13506;50.852;20.632;2023-04-19T02:45:09;98282.41;;;9.18;79.15
21359;BME280;13506;50.852;20.632;2023-04-19T02:47:36;98278.97;;;9.17;79.01
21359;BME280;13506;50.852;20.632;2023-04-19T02:50:07;98282.84;;;9.11;79.76
21359;BME280;13506;50.852;20.632;2023-04-19T02:52:43;98274.16;;;8.98;81.33
21359;BME280;13506;50.852;20.632;2023-04-19T02:55:11;98275.84;;;8.99;80.28
21359;BME280;13506;50.852;20.632;2023-04-19T02:57:40;98268.53;;;8.91;81.06
21359;BME280;13506;50.852;20.632;2023-04-19T03:00:11;98264.53;;;8.86;82.44
21359;BME280;13506;50.852;20.632;2023-04-19T03:02:43;98261.81;;;8.75;83.51
21359;BME280;13506;50.852;20.632;2023-04-19T03:05:13;98260.69;;;8.79;82.75
21359;BME280;13506;50.852;20.632;2023-04-19T03:07:41;98254.41;;;8.68;84.49
21359;BME280;13506;50.852;20.632;2023-04-19T03:10:10;98261.47;;;8.66;84.36
21359;BME280;13506;50.852;20.632;2023-04-19T03:12:37;98258.03;;;8.53;85.68
21359;BME280;13506;50.852;20.632;2023-04-19T03:15:08;98256.47;;;8.63;84.45
21359;BME280;13506;50.852;20.632;2023-04-19T03:17:36;98253.22;;;8.60;84.40
21359;BME280;13506;50.852;20.632;2023-04-19T03:20:05;98247.72;;;8.64;85.34
21359;BME280;13506;50.852;20.632;2023-04-19T03:22:37;98252.44;;;8.72;84.21
21359;BME280;13506;50.852;20.632;2023-04-19T03:25:06;98245.00;;;8.66;84.70
21359;BME280;13506;50.852;20.632;2023-04-19T03:27:34;98248.28;;;8.42;87.24
21359;BME280;13506;50.852;20.632;2023-04-19T03:30:08;98244.59;;;8.59;86.90
21359;BME280;13506;50.852;20.632;2023-04-19T03:32:36;98243.28;;;8.52;86.96
21359;BME280;13506;50.852;20.632;2023-04-19T03:35:06;98245.59;;;8.44;88.07
21359;BME280;13506;50.852;20.632;2023-04-19T03:37:36;98253.19;;;8.47;87.09
21359;BME280;13506;50.852;20.632;2023-04-19T03:40:05;98245.38;;;8.47;86.73
21359;BME280;13506;50.852;20.632;2023-04-19T03:42:34;98242.25;;;8.42;87.42
21359;BME280;13506;50.852;20.632;2023-04-19T03:45:11;98237.50;;;8.34;88.47
21359;BME280;13506;50.852;20.632;2023-04-19T03:47:44;98235.94;;;8.31;88.44
21359;BME280;13506;50.852;20.632;2023-04-19T03:50:12;98233.63;;;8.27;88.75
21359;BME280;13506;50.852;20.632;2023-04-19T03:52:45;98239.28;;;8.34;87.61
21359;BME280;13506;50.852;20.632;2023-04-19T03:55:14;98243.31;;;8.25;89.15
21359;BME280;13506;50.852;20.632;2023-04-19T03:57:42;98232.97;;;8.23;89.33
21359;BME280;13506;50.852;20.632;2023-04-19T04:00:18;98239.03;;;8.24;89.62
21359;BME280;13506;50.852;20.632;2023-04-19T04:02:53;98226.59;;;8.15;88.58
21359;BME280;13506;50.852;20.632;2023-04-19T04:05:22;98232.50;;;8.04;90.57
21359;BME280;13506;50.852;20.632;2023-04-19T04:07:51;98232.50;;;8.04;90.94
21359;BME280;13506;50.852;20.632;2023-04-19T04:10:20;98233.97;;;8.08;90.78
21359;BME280;13506;50.852;20.632;2023-04-19T04:12:48;98230.63;;;8.06;91.20
21359;BME280;13506;50.852;20.632;2023-04-19T04:15:23;98231.84;;;8.00;92.27
21359;BME280;13506;50.852;20.632;2023-04-19T04:17:53;98237.81;;;8.02;91.70
21359;BME280;13506;50.852;20.632;2023-04-19T04:20:21;98227.84;;;7.95;91.53
21359;BME280;13506;50.852;20.632;2023-04-19T04:22:54;98222.59;;;8.09;91.37
21359;BME280;13506;50.852;20.632;2023-04-19T04:25:22;98226.59;;;8.15;90.99
21359;BME280;13506;50.852;20.632;2023-04-19T04:27:52;98220.88;;;8.22;90.04
21359;BME280;13506;50.852;20.632;2023-04-19T04:30:23;98228.59;;;8.24;90.83
21359;BME280;13506;50.852;20.632;2023-04-19T04:32:53;98228.16;;;8.17;90.92
21359;BME280;13506;50.852;20.632;2023-04-19T04:35:25;98229.81;;;8.18;92.58
21359;BME280;13506;50.852;20.632;2023-04-19T04:38:05;98240.94;;;8.07;93.80
21359;BME280;13506;50.852;20.632;2023-04-19T04:40:33;98232.63;;;8.15;93.20
21359;BME280;13506;50.852;20.632;2023-04-19T04:43:01;98239.97;;;8.23;92.88
21359;BME280;13506;50.852;20.632;2023-04-19T04:45:31;98228.16;;;8.17;94.07
21359;BME280;13506;50.852;20.632;2023-04-19T04:48:01;98224.28;;;8.10;92.87
21359;BME280;13506;50.852;20.632;2023-04-19T04:50:30;98225.69;;;8.28;93.10
21359;BME280;13506;50.852;20.632;2023-04-19T04:52:58;98233.81;;;8.24;93.58
21359;BME280;13506;50.852;20.632;2023-04-19T04:55:33;98219.25;;;8.07;95.90
21359;BME280;13506;50.852;20.632;2023-04-19T04:58:02;98232.09;;;8.10;95.00
21359;BME280;13506;50.852;20.632;2023-04-19T05:00:48;98234.06;;;8.06;94.77
21359;BME280;13506;50.852;20.632;2023-04-19T05:03:17;98225.59;;;8.03;94.87
21359;BME280;13506;50.852;20.632;2023-04-19T05:05:51;98225.47;;;7.91;94.08
21359;BME280;13506;50.852;20.632;2023-04-19T05:08:19;98231.59;;;7.90;93.12
21359;BME280;13506;50.852;20.632;2023-04-19T05:10:49;98226.00;;;7.55;92.73
21359;BME280;13506;50.852;20.632;2023-04-19T05:13:18;98232.56;;;7.61;91.35
21359;BME280;13506;50.852;20.632;2023-04-19T05:15:47;98236.94;;;7.60;91.92
21359;BME280;13506;50.852;20.632;2023-04-19T05:18:14;98234.72;;;7.40;91.46
21359;BME280;13506;50.852;20.632;2023-04-19T05:20:43;98237.63;;;7.35;90.67
21359;BME280;13506;50.852;20.632;2023-04-19T05:23:22;98242.91;;;7.34;89.90
21359;BME280;13506;50.852;20.632;2023-04-19T05:25:52;98241.91;;;7.36;89.26
21359;BME280;13506;50.852;20.632;2023-04-19T05:28:22;98247.19;;;7.35;87.81
21359;BME280;13506;50.852;20.632;2023-04-19T05:31:01;98246.47;;;7.33;87.36
21359;BME280;13506;50.852;20.632;2023-04-19T05:33:34;98235.59;;;7.26;85.03
21359;BME280;13506;50.852;20.632;2023-04-19T05:36:02;98232.50;;;7.34;84.82
21359;BME280;13506;50.852;20.632;2023-04-19T05:38:30;98222.94;;;7.34;83.94
21359;BME280;13506;50.852;20.632;2023-04-19T05:41:03;98230.00;;;7.32;83.02
21359;BME280;13506;50.852;20.632;2023-04-19T05:43:31;98225.16;;;7.12;82.66
21359;BME280;13506;50.852;20.632;2023-04-19T05:46:00;98227.22;;;7.21;82.69
21359;BME280;13506;50.852;20.632;2023-04-19T05:48:28;98231.66;;;7.19;81.73
21359;BME280;13506;50.852;20.632;2023-04-19T05:51:06;98214.19;;;7.21;82.38
21359;BME280;13506;50.852;20.632;2023-04-19T05:53:43;98226.66;;;7.16;82.08
21359;BME280;13506;50.852;20.632;2023-04-19T05:56:13;98224.16;;;7.28;81.95
21359;BME280;13506;50.852;20.632;2023-04-19T05:58:41;98228.81;;;7.23;81.38
21359;BME280;13506;50.852;20.632;2023-04-19T06:01:09;98232.69;;;7.30;81.51
21359;BME280;13506;50.852;20.632;2023-04-19T06:03:37;98218.28;;;7.39;81.23
21359;BME280;13506;50.852;20.632;2023-04-19T06:06:06;98225.44;;;7.36;81.44
21359;BME280;13506;50.852;20.632;2023-04-19T06:08:34;98221.56;;;7.28;80.04
21359;BME280;13506;50.852;20.632;2023-04-19T06:11:02;98222.28;;;7.30;80.94
21359;BME280;13506;50.852;20.632;2023-04-19T06:13:31;98226.84;;;7.41;79.69
21359;BME280;13506;50.852;20.632;2023-04-19T06:15:59;98234.84;;;7.38;79.15
21359;BME280;13506;50.852;20.632;2023-04-19T06:18:27;98231.88;;;7.44;79.61
21359;BME280;13506;50.852;20.632;2023-04-19T06:20:56;98230.56;;;7.52;79.42
21359;BME280;13506;50.852;20.632;2023-04-19T06:23:23;98227.00;;;7.53;77.81
21359;BME280;13506;50.852;20.632;2023-04-19T06:25:52;98227.69;;;7.27;77.58
21359;BME280;13506;50.852;20.632;2023-04-19T06:28:20;98224.53;;;7.37;78.09
21359;BME280;13506;50.852;20.632;2023-04-19T06:30:50;98218.66;;;7.47;77.74
21359;BME280;13506;50.852;20.632;2023-04-19T06:33:18;98221.16;;;7.49;76.95
21359;BME280;13506;50.852;20.632;2023-04-19T06:35:46;98220.06;;;7.53;76.84
21359;BME280;13506;50.852;20.632;2023-04-19T06:38:14;98218.75;;;7.46;76.55
21359;BME280;13506;50.852;20.632;2023-04-19T06:40:42;98221.53;;;7.43;77.06
21359;BME280;13506;50.852;20.632;2023-04-19T06:43:10;98215.94;;;7.63;76.81
21359;BME280;13506;50.852;20.632;2023-04-19T06:45:38;98219.28;;;7.65;77.30
21359;BME280;13506;50.852;20.632;2023-04-19T06:48:07;98229.59;;;7.67;77.60
21359;BME280;13506;50.852;20.632;2023-04-19T06:50:35;98215.28;;;7.74;77.56
21359;BME280;13506;50.852;20.632;2023-04-19T06:53:03;98230.84;;;7.88;76.88
21359;BME280;13506;50.852;20.632;2023-04-19T06:55:31;98231.97;;;7.84;75.53
21359;BME280;13506;50.852;20.632;2023-04-19T06:57:59;98222.06;;;8.04;75.42
21359;BME280;13506;50.852;20.632;2023-04-19T07:00:27;98223.56;;;8.08;74.34
21359;BME280;13506;50.852;20.632;2023-04-19T07:02:55;98214.31;;;7.89;74.72
21359;BME280;13506;50.852;20.632;2023-04-19T07:05:27;98228.97;;;7.90;76.16
21359;BME280;13506;50.852;20.632;2023-04-19T07:07:55;98230.63;;;8.06;74.99
21359;BME280;13506;50.852;20.632;2023-04-19T07:10:23;98227.22;;;8.18;75.95
21359;BME280;13506;50.852;20.632;2023-04-19T07:12:51;98234.06;;;8.34;75.46
21359;BME280;13506;50.852;20.632;2023-04-19T07:15:19;98229.66;;;8.48;74.83
21359;BME280;13506;50.852;20.632;2023-04-19T07:17:47;98231.22;;;8.51;74.30
21359;BME280;13506;50.852;20.632;2023-04-19T07:20:15;98225.38;;;8.60;73.88
21359;BME280;13506;50.852;20.632;2023-04-19T07:22:44;98232.69;;;8.68;72.65
21359;BME280;13506;50.852;20.632;2023-04-19T07:25:14;98224.47;;;8.74;71.94
21359;BME280;13506;50.852;20.632;2023-04-19T07:27:41;98229.16;;;8.82;70.78
21359;BME280;13506;50.852;20.632;2023-04-19T07:30:11;98233.75;;;8.65;71.43
21359;BME280;13506;50.852;20.632;2023-04-19T07:32:39;98237.91;;;8.55;71.99
21359;BME280;13506;50.852;20.632;2023-04-19T07:35:08;98232.19;;;8.36;72.09
21359;BME280;13506;50.852;20.632;2023-04-19T07:37:35;98240.31;;;8.04;74.42
21359;BME280;13506;50.852;20.632;2023-04-19T07:40:06;98247.09;;;8.06;74.80
21359;BME280;13506;50.852;20.632;2023-04-19T07:42:34;98237.50;;;8.07;75.04
21359;BME280;13506;50.852;20.632;2023-04-19T07:45:02;98243.78;;;8.17;74.52
21359;BME280;13506;50.852;20.632;2023-04-19T07:47:31;98242.50;;;8.37;74.62
21359;BME280;13506;50.852;20.632;2023-04-19T07:49:59;98238.09;;;8.52;73.57
21359;BME280;13506;50.852;20.632;2023-04-19T07:52:27;98239.78;;;8.53;73.74
21359;BME280;13506;50.852;20.632;2023-04-19T07:54:55;98243.31;;;8.25;74.63
21359;BME280;13506;50.852;20.632;2023-04-19T07:57:24;98233.47;;;8.16;75.53
21359;BME280;13506;50.852;20.632;2023-04-19T07:59:52;98231.59;;;7.90;75.81
21359;BME280;13506;50.852;20.632;2023-04-19T08:02:25;98240.22;;;7.64;78.08
21359;BME280;13506;50.852;20.632;2023-04-19T08:04:53;98238.34;;;7.80;78.04
21359;BME280;13506;50.852;20.632;2023-04-19T08:07:21;98234.84;;;7.94;76.75
21359;BME280;13506;50.852;20.632;2023-04-19T08:09:50;98230.81;;;8.03;76.89
21359;BME280;13506;50.852;20.632;2023-04-19T08:12:17;98230.16;;;8.26;76.80
21359;BME280;13506;50.852;20.632;2023-04-19T08:14:47;98237.03;;;8.42;75.82
21359;BME280;13506;50.852;20.632;2023-04-19T08:17:14;98221.63;;;8.51;74.66
21359;BME280;13506;50.852;20.632;2023-04-19T08:19:46;98222.66;;;8.49;73.70
21359;BME280;13506;50.852;20.632;2023-04-19T08:22:15;98229.44;;;8.51;73.57
21359;BME280;13506;50.852;20.632;2023-04-19T08:24:43;98232.88;;;8.52;74.38
21359;BME280;13506;50.852;20.632;2023-04-19T08:27:11;98220.38;;;8.57;73.67
21359;BME280;13506;50.852;20.632;2023-04-19T08:29:39;98233.53;;;8.68;73.24
21359;BME280;13506;50.852;20.632;2023-04-19T08:32:09;98225.72;;;8.68;72.47
21359;BME280;13506;50.852;20.632;2023-04-19T08:34:38;98229.69;;;8.74;72.95
21359;BME280;13506;50.852;20.632;2023-04-19T08:37:06;98228.31;;;8.68;71.92
21359;BME280;13506;50.852;20.632;2023-04-19T08:39:34;98224.81;;;8.95;71.75
21359;BME280;13506;50.852;20.632;2023-04-19T08:42:04;98227.50;;;9.06;72.20
21359;BME280;13506;50.852;20.632;2023-04-19T08:44:34;98231.50;;;9.12;71.17
21359;BME280;13506;50.852;20.632;2023-04-19T08:47:04;98233.06;;;9.02;71.95
21359;BME280;13506;50.852;20.632;2023-04-19T08:49:35;98240.25;;;9.11;71.16
21359;BME280;13506;50.852;20.632;2023-04-19T08:52:06;98233.47;;;9.08;71.35
21359;BME280;13506;50.852;20.632;2023-04-19T08:54:35;98243.06;;;9.08;71.74
21359;BME280;13506;50.852;20.632;2023-04-19T08:57:04;98241.19;;;8.97;72.29
21359;BME280;13506;50.852;20.632;2023-04-19T08:59:34;98247.66;;;9.04;73.01
21359;BME280;13506;50.852;20.632;2023-04-19T09:02:02;98242.34;;;9.19;72.12
21359;BME280;13506;50.852;20.632;2023-04-19T09:04:31;98229.91;;;9.22;72.20
21359;BME280;13506;50.852;20.632;2023-04-19T09:07:00;98219.34;;;9.24;71.79
21359;BME280;13506;50.852;20.632;2023-04-19T09:09:29;98231.16;;;9.29;72.31
21359;BME280;13506;50.852;20.632;2023-04-19T09:11:57;98239.63;;;9.33;71.71
21359;BME280;13506;50.852;20.632;2023-04-19T09:14:26;98241.38;;;9.45;71.14
21359;BME280;13506;50.852;20.632;2023-04-19T09:17:02;98235.50;;;9.54;69.99
21359;BME280;13506;50.852;20.632;2023-04-19T09:19:45;98232.97;;;9.66;70.13
21359;BME280;13506;50.852;20.632;2023-04-19T09:22:15;98228.28;;;9.71;70.35
21359;BME280;13506;50.852;20.632;2023-04-19T09:24:43;98235.97;;;9.85;71.44
21359;BME280;13506;50.852;20.632;2023-04-19T09:27:11;98227.06;;;10.01;70.58
21359;BME280;13506;50.852;20.632;2023-04-19T09:29:39;98230.06;;;10.07;69.80
21359;BME280;13506;50.852;20.632;2023-04-19T09:32:07;98230.00;;;10.20;69.16
21359;BME280;13506;50.852;20.632;2023-04-19T09:34:35;98230.44;;;10.14;68.92
21359;BME280;13506;50.852;20.632;2023-04-19T09:37:18;98227.81;;;10.38;69.70
21359;BME280;13506;50.852;20.632;2023-04-19T09:39:46;98229.25;;;10.42;68.72
21359;BME280;13506;50.852;20.632;2023-04-19T09:42:14;98222.28;;;10.54;68.48
21359;BME280;13506;50.852;20.632;2023-04-19T09:44:55;98226.84;;;10.63;67.81
21359;BME280;13506;50.852;20.632;2023-04-19T09:47:25;98226.41;;;10.81;67.57
21359;BME280;13506;50.852;20.632;2023-04-19T09:50:05;98231.41;;;10.84;67.00
21359;BME280;13506;50.852;20.632;2023-04-19T09:52:36;98228.28;;;10.79;66.90
21359;BME280;13506;50.852;20.632;2023-04-19T09:55:05;98232.31;;;10.60;67.05
21359;BME280;13506;50.852;20.632;2023-04-19T09:57:34;98227.28;;;10.57;67.01
21359;BME280;13506;50.852;20.632;2023-04-19T10:00:02;98236.09;;;10.56;66.49
21359;BME280;13506;50.852;20.632;2023-04-19T10:02:39;98232.88;;;10.52;67.31
21359;BME280;13506;50.852;20.632;2023-04-19T10:05:09;98238.38;;;10.72;66.80
21359;BME280;13506;50.852;20.632;2023-04-19T10:07:38;98227.19;;;10.59;67.00
21359;BME280;13506;50.852;20.632;2023-04-19T10:10:07;98236.94;;;10.68;66.24
21359;BME280;13506;50.852;20.632;2023-04-19T10:12:36;98232.91;;;10.64;66.61
21359;BME280;13506;50.852;20.632;2023-04-19T10:15:06;98234.72;;;10.74;67.01
21359;BME280;13506;50.852;20.632;2023-04-19T10:17:35;98231.59;;;10.69;66.39
21359;BME280;13506;50.852;20.632;2023-04-19T10:20:07;98232.75;;;10.54;66.82
21359;BME280;13506;50.852;20.632;2023-04-19T10:22:36;98237.44;;;10.38;65.87
21359;BME280;13506;50.852;20.632;2023-04-19T10:25:12;98234.34;;;10.32;66.52
21359;BME280;13506;50.852;20.632;2023-04-19T10:27:42;98228.91;;;10.47;66.79
21359;BME280;13506;50.852;20.632;2023-04-19T10:30:18;98229.56;;;10.62;66.26
21359;BME280;13506;50.852;20.632;2023-04-19T10:32:51;98230.75;;;10.58;67.25
21359;BME280;13506;50.852;20.632;2023-04-19T10:35:25;98224.91;;;10.54;65.68
21359;BME280;13506;50.852;20.632;2023-04-19T10:38:06;98227.63;;;10.52;66.31
21359;BME280;13506;50.852;20.632;2023-04-19T10:40:56;98225.56;;;10.45;67.33
21359;BME280;13506;50.852;20.632;2023-04-19T10:43:27;98233.03;;;10.38;66.79
21359;BME280;13506;50.852;20.632;2023-04-19T10:45:59;98229.19;;;10.55;67.51
21359;BME280;13506;50.852;20.632;2023-04-19T10:48:42;98228.53;;;10.64;66.34
21359;BME280;13506;50.852;20.632;2023-04-19T10:51:21;98226.53;;;10.79;66.48
21359;BME280;13506;50.852;20.632;2023-04-19T10:53:54;98230.88;;;10.67;66.25
21359;BME280;13506;50.852;20.632;2023-04-19T10:56:57;98231.59;;;10.69;66.28
21359;BME280;13506;50.852;20.632;2023-04-19T10:59:29;98238.31;;;10.85;65.75
21359;BME280;13506;50.852;20.632;2023-04-19T11:01:59;98236.38;;;10.75;66.21
21359;BME280;13506;50.852;20.632;2023-04-19T11:07:41;98243.31;;;10.77;65.60
21359;BME280;13506;50.852;20.632;2023-04-19T11:10:10;98238.09;;;10.88;65.58
21359;BME280;13506;50.852;20.632;2023-04-19T11:12:43;98235.22;;;10.91;65.44
21359;BME280;13506;50.852;20.632;2023-04-19T11:15:11;98236.19;;;10.90;64.85
21359;BME280;13506;50.852;20.632;2023-04-19T11:17:39;98240.72;;;10.88;65.02
21359;BME280;13506;50.852;20.632;2023-04-19T11:20:09;98225.19;;;10.62;66.04
21359;BME280;13506;50.852;20.632;2023-04-19T11:22:38;98236.81;;;10.58;66.41
21359;BME280;13506;50.852;20.632;2023-04-19T11:25:08;98232.53;;;10.57;66.34
21359;BME280;13506;50.852;20.632;2023-04-19T11:27:37;98233.75;;;10.64;67.56
21359;BME280;13506;50.852;20.632;2023-04-19T11:30:08;98225.69;;;10.79;66.88
21359;BME280;13506;50.852;20.632;2023-04-19T11:32:37;98222.13;;;10.80;67.63
21359;BME280;13506;50.852;20.632;2023-04-19T11:35:07;98233.06;;;10.73;67.84
21359;BME280;13506;50.852;20.632;2023-04-19T11:37:36;98231.34;;;10.61;67.35
21359;BME280;13506;50.852;20.632;2023-04-19T11:40:06;98226.47;;;10.68;67.93
21359;BME280;13506;50.852;20.632;2023-04-19T11:42:34;98233.28;;;10.70;68.03
21359;BME280;13506;50.852;20.632;2023-04-19T11:45:03;98240.44;;;10.68;68.16
21359;BME280;13506;50.852;20.632;2023-04-19T11:47:33;98238.91;;;10.77;68.31
21359;BME280;13506;50.852;20.632;2023-04-19T11:50:32;98240.47;;;10.91;67.55
21359;BME280;13506;50.852;20.632;2023-04-19T11:53:11;98234.41;;;10.90;67.40
21359;BME280;13506;50.852;20.632;2023-04-19T11:55:42;98231.94;;;11.00;67.93
21359;BME280;13506;50.852;20.632;2023-04-19T11:58:26;98235.59;;;10.98;67.74
21359;BME280;13506;50.852;20.632;2023-04-19T12:00:55;98235.88;;;11.06;66.92
21359;BME280;13506;50.852;20.632;2023-04-19T12:03:27;98235.13;;;10.92;66.74
21359;BME280;13506;50.852;20.632;2023-04-19T12:05:56;98239.97;;;10.86;67.77
21359;BME280;13506;50.852;20.632;2023-04-19T12:08:31;98242.22;;;10.79;68.17
21359;BME280;13506;50.852;20.632;2023-04-19T12:10:59;98229.97;;;10.80;67.63
21359;BME280;13506;50.852;20.632;2023-04-19T12:13:29;98233.41;;;10.80;68.37
21359;BME280;13506;50.852;20.632;2023-04-19T12:15:58;98231.16;;;10.75;67.75
21359;BME280;13506;50.852;20.632;2023-04-19T12:18:27;98234.97;;;10.83;68.34
21359;BME280;13506;50.852;20.632;2023-04-19T12:21:09;98243.59;;;10.96;68.35
21359;BME280;13506;50.852;20.632;2023-04-19T12:23:38;98235.94;;;10.93;67.42
21359;BME280;13506;50.852;20.632;2023-04-19T12:26:05;98235.69;;;10.85;68.21
21359;BME280;13506;50.852;20.632;2023-04-19T12:28:34;98229.41;;;10.87;67.24
21359;BME280;13506;50.852;20.632;2023-04-19T12:31:01;98229.53;;;10.86;66.18
21359;BME280;13506;50.852;20.632;2023-04-19T12:33:31;98238.53;;;10.82;66.43
21359;BME280;13506;50.852;20.632;2023-04-19T12:35:59;98237.22;;;10.76;67.04
21359;BME280;13506;50.852;20.632;2023-04-19T12:38:27;98241.38;;;10.79;66.91
21359;BME280;13506;50.852;20.632;2023-04-19T12:40:55;98231.78;;;10.79;67.53
21359;BME280;13506;50.852;20.632;2023-04-19T12:43:23;98229.25;;;10.78;68.08
21359;BME280;13506;50.852;20.632;2023-04-19T12:45:51;98225.47;;;10.82;67.79
21359;BME280;13506;50.852;20.632;2023-04-19T12:48:20;98232.84;;;10.88;68.11
21359;BME280;13506;50.852;20.632;2023-04-19T12:50:49;98230.00;;;10.91;68.22
21359;BME280;13506;50.852;20.632;2023-04-19T12:53:17;98227.38;;;10.91;67.04
21359;BME280;13506;50.852;20.632;2023-04-19T12:55:46;98223.22;;;11.00;67.15
21359;BME280;13506;50.852;20.632;2023-04-19T12:58:15;98229.88;;;11.04;66.95
21359;BME280;13506;50.852;20.632;2023-04-19T13:00:44;98229.59;;;11.08;67.43
21359;BME280;13506;50.852;20.632;2023-04-19T13:03:12;98232.44;;;11.16;66.58
21359;BME280;13506;50.852;20.632;2023-04-19T13:05:40;98235.47;;;10.88;67.88
21359;BME280;13506;50.852;20.632;2023-04-19T13:08:09;98231.00;;;11.12;67.03
21359;BME280;13506;50.852;20.632;2023-04-19T13:10:37;98232.94;;;11.22;67.02
21359;BME280;13506;50.852;20.632;2023-04-19T13:13:06;98234.84;;;11.20;67.82
21359;BME280;13506;50.852;20.632;2023-04-19T13:15:33;98227.22;;;11.28;67.12